Time,TemperatureF,DewpointF,PressureIn,WindDirection,WindDirectionDegrees,WindSpeedMPH,WindSpeedGustMPH,Humidity,HourlyPrecipIn,Conditions,Clouds,dailyrainin,SoftwareType,DateUTC
2013-02-27 00:01:00,41.9,41.4,29.63,West,270,0.0,3.0,98,0.00,,,0.00,meteohub,2013-02-27 05:01:00,
2013-02-27 00:02:00,41.9,41.4,29.63,West,270,0.0,3.0,98,0.00,,,0.00,meteohub,2013-02-27 05:02:00,
2013-02-27 00:04:00,41.9,41.4,29.63,West,270,0.0,3.0,98,0.00,,,0.00,meteohub,2013-02-27 05:04:00,
2013-02-27 00:10:00,43.2,43.0,29.63,SW,225,2.0,2.0,99,0.00,,,0.00,meteohub,2013-02-27 05:10:00,
2013-02-27 00:16:00,43.3,43.2,29.63,SW,225,1.0,4.0,99,0.00,,,0.00,meteohub,2013-02-27 05:16:00,
2013-02-27 00:22:00,43.5,43.3,29.63,West,270,1.0,4.0,99,0.00,,,0.00,meteohub,2013-02-27 05:22:00,
2013-02-27 00:27:00,43.9,43.7,29.63,NE,45,2.0,2.0,99,0.00,,,0.00,meteohub,2013-02-27 05:27:00,
2013-02-27 00:32:00,43.9,43.7,29.63,NE,45,2.0,2.0,99,0.00,,,0.00,meteohub,2013-02-27 05:32:00,
2013-02-27 00:37:00,43.9,43.7,29.63,SW,225,4.0,4.0,99,0.00,,,0.00,meteohub,2013-02-27 05:37:00,
2013-02-27 00:42:00,43.9,43.3,29.63,NW,315,4.0,4.0,98,0.00,,,0.00,meteohub,2013-02-27 05:42:00,
2013-02-27 00:47:00,43.7,43.5,29.63,NE,45,2.0,4.0,99,0.00,,,0.00,meteohub,2013-02-27 05:47:00,
2013-02-27 00:52:00,43.5,43.0,29.63,SW,225,3.0,4.0,98,0.00,,,0.00,meteohub,2013-02-27 05:52:00,
2013-02-27 00:57:00,43.3,43.2,29.63,West,270,4.0,4.0,99,0.00,,,0.00,meteohub,2013-02-27 05:57:00,
2013-02-27 01:02:00,43.3,42.8,29.63,West,270,2.0,4.0,98,0.00,,,0.00,meteohub,2013-02-27 06:02:00,
2013-02-27 01:07:00,43.3,42.8,29.63,West,270,2.0,4.0,98,0.00,,,0.00,meteohub,2013-02-27 06:07:00,
2013-02-27 01:12:00,43.0,42.8,29.63,SW,225,8.0,8.0,99,0.00,,,0.00,meteohub,2013-02-27 06:12:00,
2013-02-27 01:17:00,43.0,42.4,29.64,East,90,1.0,8.0,98,0.00,,,0.00,meteohub,2013-02-27 06:17:00,
2013-02-27 01:22:00,43.0,42.4,29.64,SE,135,2.0,8.0,98,0.00,,,0.00,meteohub,2013-02-27 06:22:00,
2013-02-27 01:27:00,42.8,42.3,29.63,SE,135,0.0,8.0,98,0.00,,,0.00,meteohub,2013-02-27 06:27:00,
2013-02-27 01:32:00,42.8,42.3,29.64,SE,135,0.0,4.0,98,0.00,,,0.00,meteohub,2013-02-27 06:32:00,
2013-02-27 01:37:00,42.8,42.6,29.64,North,0,2.0,2.0,99,0.00,,,0.00,meteohub,2013-02-27 06:37:00,
2013-02-27 01:42:00,42.8,42.6,29.63,North,0,0.0,2.0,99,0.00,,,0.00,meteohub,2013-02-27 06:42:00,
2013-02-27 01:47:00,42.8,42.3,29.64,North,0,0.0,2.0,98,0.00,,,0.00,meteohub,2013-02-27 06:47:00,
2013-02-27 01:52:00,43.0,42.8,29.64,North,0,2.0,3.0,99,0.00,,,0.00,meteohub,2013-02-27 06:52:00,
2013-02-27 01:57:00,43.0,42.4,29.64,East,90,2.0,4.0,98,0.00,,,0.00,meteohub,2013-02-27 06:57:00,
2013-02-27 02:02:00,43.0,42.4,29.64,East,90,1.0,4.0,98,0.00,,,0.00,meteohub,2013-02-27 07:02:00,
2013-02-27 02:07:00,43.0,42.4,29.64,East,90,1.0,4.0,98,0.00,,,0.00,meteohub,2013-02-27 07:07:00,
2013-02-27 02:12:00,42.8,42.6,29.64,North,0,2.0,2.0,99,0.00,,,0.00,meteohub,2013-02-27 07:12:00,
2013-02-27 02:17:00,42.8,42.3,29.64,West,270,2.0,2.0,98,0.00,,,0.00,meteohub,2013-02-27 07:17:00,
2013-02-27 02:22:00,42.8,42.6,29.64,SW,225,2.0,4.0,99,0.00,,,0.00,meteohub,2013-02-27 07:22:00,
2013-02-27 02:27:00,42.6,42.1,29.65,South,180,4.0,4.0,98,0.00,,,0.00,meteohub,2013-02-27 07:27:00,
2013-02-27 02:32:00,42.6,42.1,29.65,South,180,0.0,4.0,98,0.00,,,0.00,meteohub,2013-02-27 07:32:00,
2013-02-27 02:37:00,42.6,42.1,29.65,South,180,0.0,4.0,98,0.00,,,0.00,meteohub,2013-02-27 07:37:00,
2013-02-27 02:42:00,42.8,42.6,29.65,SE,135,2.0,4.0,99,0.00,,,0.00,meteohub,2013-02-27 07:42:00,
2013-02-27 02:47:00,42.6,42.4,29.65,NW,315,4.0,4.0,99,0.00,,,0.00,meteohub,2013-02-27 07:47:00,
2013-02-27 02:52:00,42.6,42.4,29.64,SW,225,4.0,8.0,99,0.00,,,0.00,meteohub,2013-02-27 07:52:00,
2013-02-27 02:57:00,42.6,42.4,29.64,SW,225,2.0,8.0,99,0.00,,,0.00,meteohub,2013-02-27 07:57:00,
2013-02-27 03:02:00,42.6,42.4,29.64,SW,225,2.0,5.0,99,0.00,,,0.00,meteohub,2013-02-27 08:02:00,
2013-02-27 03:07:00,42.6,42.4,29.63,SW,225,2.0,5.0,99,0.00,,,0.00,meteohub,2013-02-27 08:07:00,
2013-02-27 03:12:00,42.6,42.4,29.63,East,90,2.0,2.0,99,0.00,,,0.00,meteohub,2013-02-27 08:12:00,
2013-02-27 03:17:00,42.6,42.4,29.63,SE,135,0.0,3.0,99,0.00,,,0.00,meteohub,2013-02-27 08:17:00,
2013-02-27 03:22:00,42.4,42.3,29.62,East,90,0.0,3.0,99,0.00,,,0.00,meteohub,2013-02-27 08:22:00,
2013-02-27 03:27:00,42.4,42.3,29.62,East,90,0.0,3.0,99,0.00,,,0.00,meteohub,2013-02-27 08:27:00,
2013-02-27 03:32:00,42.4,42.3,29.62,South,180,0.0,1.0,99,0.00,,,0.00,meteohub,2013-02-27 08:32:00,
2013-02-27 03:37:00,42.4,42.3,29.63,South,180,0.0,3.0,99,0.00,,,0.00,meteohub,2013-02-27 08:37:00,
2013-02-27 03:42:00,42.6,42.4,29.63,NW,315,3.0,3.0,99,0.00,,,0.00,meteohub,2013-02-27 08:42:00,
2013-02-27 03:47:00,42.6,42.4,29.63,NW,315,4.0,4.0,99,0.00,,,0.00,meteohub,2013-02-27 08:47:00,
2013-02-27 03:52:00,42.6,42.4,29.63,West,270,2.0,4.0,99,0.00,,,0.00,meteohub,2013-02-27 08:52:00,
2013-02-27 03:57:00,42.6,42.4,29.64,South,180,2.0,4.0,99,0.00,,,0.00,meteohub,2013-02-27 08:57:00,
2013-02-27 04:05:00,42.8,42.6,29.63,SW,225,0.0,4.0,99,0.00,,,0.00,meteohub,2013-02-27 09:05:00,
2013-02-27 04:11:00,42.8,42.6,29.64,South,180,4.0,4.0,99,0.00,,,0.00,meteohub,2013-02-27 09:11:00,
2013-02-27 04:17:00,42.8,42.6,29.65,SW,225,5.0,5.0,99,0.00,,,0.00,meteohub,2013-02-27 09:17:00,
2013-02-27 04:22:00,42.8,42.6,29.65,East,90,2.0,5.0,99,0.00,,,0.00,meteohub,2013-02-27 09:22:00,
2013-02-27 04:27:00,42.8,42.6,29.65,South,180,7.0,7.0,99,0.00,,,0.00,meteohub,2013-02-27 09:27:00,
2013-02-27 04:32:00,42.8,42.6,29.65,South,180,2.0,8.0,99,0.00,,,0.00,meteohub,2013-02-27 09:32:00,
2013-02-27 04:37:00,42.8,42.6,29.65,West,270,3.0,8.0,99,0.00,,,0.00,meteohub,2013-02-27 09:37:00,
2013-02-27 04:42:00,42.8,42.6,29.65,NW,315,6.0,8.0,99,0.00,,,0.00,meteohub,2013-02-27 09:42:00,
2013-02-27 04:47:00,42.8,42.6,29.66,South,180,4.0,7.0,99,0.00,,,0.00,meteohub,2013-02-27 09:47:00,
2013-02-27 04:52:00,42.6,42.1,29.65,SE,135,3.0,7.0,98,0.00,,,0.00,meteohub,2013-02-27 09:52:00,
2013-02-27 04:57:00,42.4,41.9,29.66,SW,225,4.0,7.0,98,0.00,,,0.00,meteohub,2013-02-27 09:57:00,
2013-02-27 05:02:00,42.3,41.7,29.66,South,180,0.0,4.0,98,0.00,,,0.00,meteohub,2013-02-27 10:02:00,
2013-02-27 05:08:00,42.1,41.5,29.66,NW,315,3.0,4.0,98,0.00,,,0.00,meteohub,2013-02-27 10:08:00,
2013-02-27 05:14:00,42.1,41.5,29.66,South,180,8.0,8.0,98,0.00,,,0.00,meteohub,2013-02-27 10:14:00,
2013-02-27 05:20:00,41.9,41.4,29.67,SW,225,1.0,8.0,98,0.00,,,0.00,meteohub,2013-02-27 10:20:00,
2013-02-27 05:26:00,41.9,41.4,29.67,South,180,2.0,8.0,98,0.00,,,0.00,meteohub,2013-02-27 10:26:00,
2013-02-27 05:32:00,41.9,41.4,29.67,SW,225,1.0,8.0,98,0.00,,,0.00,meteohub,2013-02-27 10:32:00,
2013-02-27 05:37:00,41.9,41.4,29.67,SW,225,1.0,8.0,98,0.00,,,0.00,meteohub,2013-02-27 10:37:00,
2013-02-27 05:42:00,41.9,41.4,29.68,SW,225,3.0,3.0,98,0.00,,,0.00,meteohub,2013-02-27 10:42:00,
2013-02-27 05:47:00,41.9,41.2,29.68,South,180,1.0,8.0,97,0.00,,,0.00,meteohub,2013-02-27 10:47:00,
2013-02-27 05:52:00,41.9,41.4,29.68,SE,135,8.0,8.0,98,0.00,,,0.00,meteohub,2013-02-27 10:52:00,
2013-02-27 05:57:00,41.9,41.2,29.68,South,180,3.0,8.0,97,0.00,,,0.00,meteohub,2013-02-27 10:57:00,
2013-02-27 06:02:00,41.9,41.4,29.68,West,270,3.0,8.0,98,0.00,,,0.00,meteohub,2013-02-27 11:02:00,
2013-02-27 06:07:00,41.9,41.2,29.68,SW,225,2.0,8.0,97,0.00,,,0.00,meteohub,2013-02-27 11:07:00,
2013-02-27 06:15:00,41.9,41.2,29.69,NW,315,9.0,9.0,97,0.00,,,0.00,meteohub,2013-02-27 11:15:00,
2013-02-27 06:21:00,41.9,41.2,29.69,NW,315,9.0,9.0,97,0.00,,,0.00,meteohub,2013-02-27 11:21:00,
2013-02-27 06:27:00,41.9,40.8,29.70,South,180,3.0,9.0,96,0.00,,,0.00,meteohub,2013-02-27 11:27:00,
2013-02-27 06:32:00,41.7,40.6,29.69,NW,315,4.0,9.0,96,0.00,,,0.00,meteohub,2013-02-27 11:32:00,
2013-02-27 06:37:00,41.7,40.6,29.69,NW,315,2.0,9.0,96,0.00,,,0.00,meteohub,2013-02-27 11:37:00,
2013-02-27 06:42:00,41.5,40.5,29.69,NW,315,4.0,7.0,96,0.00,,,0.00,meteohub,2013-02-27 11:42:00,
2013-02-27 06:47:00,41.5,40.5,29.70,West,270,2.0,5.0,96,0.00,,,0.00,meteohub,2013-02-27 11:47:00,
2013-02-27 06:52:00,41.5,40.5,29.70,West,270,2.0,5.0,96,0.00,,,0.00,meteohub,2013-02-27 11:52:00,
2013-02-27 06:57:00,41.5,40.5,29.71,SW,225,4.0,8.0,96,0.00,,,0.00,meteohub,2013-02-27 11:57:00,
2013-02-27 07:02:00,41.5,40.5,29.70,West,270,4.0,8.0,96,0.00,,,0.00,meteohub,2013-02-27 12:02:00,
2013-02-27 07:07:00,41.4,40.3,29.71,NW,315,4.0,8.0,96,0.00,,,0.00,meteohub,2013-02-27 12:07:00,
2013-02-27 07:12:00,41.4,40.3,29.71,NW,315,4.0,6.0,96,0.00,,,0.00,meteohub,2013-02-27 12:12:00,
2013-02-27 07:17:00,41.5,40.5,29.72,NW,315,2.0,6.0,96,0.00,,,0.00,meteohub,2013-02-27 12:17:00,
2013-02-27 07:22:00,41.5,40.5,29.73,SW,225,4.0,6.0,96,0.00,,,0.00,meteohub,2013-02-27 12:22:00,
2013-02-27 07:27:00,41.4,40.3,29.72,SW,225,1.0,4.0,96,0.00,,,0.00,meteohub,2013-02-27 12:27:00,
2013-02-27 07:32:00,41.4,40.1,29.73,South,180,2.0,5.0,95,0.00,,,0.00,meteohub,2013-02-27 12:32:00,
2013-02-27 07:37:00,41.2,39.9,29.73,SE,135,2.0,5.0,95,0.00,,,0.00,meteohub,2013-02-27 12:37:00,
2013-02-27 07:42:00,41.2,39.9,29.73,South,180,3.0,4.0,95,0.00,,,0.00,meteohub,2013-02-27 12:42:00,
2013-02-27 07:49:00,41.0,39.7,29.73,SW,225,3.0,5.0,95,0.00,,,0.00,meteohub,2013-02-27 12:49:00,
2013-02-27 07:55:00,41.2,39.9,29.73,West,270,2.0,5.0,95,0.00,,,0.00,meteohub,2013-02-27 12:55:00,
2013-02-27 08:01:00,41.5,40.5,29.74,NW,315,3.0,5.0,96,0.00,,,0.00,meteohub,2013-02-27 13:01:00,
2013-02-27 08:07:00,41.9,40.8,29.75,East,90,2.0,4.0,96,0.00,,,0.00,meteohub,2013-02-27 13:07:00,
2013-02-27 08:12:00,41.9,40.6,29.75,SW,225,2.0,4.0,95,0.00,,,0.00,meteohub,2013-02-27 13:12:00,
2013-02-27 08:17:00,41.9,40.6,29.75,NNW,338,3.0,4.0,95,0.00,,,0.00,meteohub,2013-02-27 13:17:00,
2013-02-27 08:22:00,42.1,40.8,29.75,East,90,2.0,4.0,95,0.00,,,0.00,meteohub,2013-02-27 13:22:00,
2013-02-27 08:28:00,42.4,41.2,29.76,SE,135,2.0,8.0,95,0.00,,,0.00,meteohub,2013-02-27 13:28:00,
2013-02-27 08:34:00,42.8,41.5,29.76,SE,135,4.0,8.0,95,0.00,,,0.00,meteohub,2013-02-27 13:34:00,
2013-02-27 08:40:00,42.8,41.2,29.76,SE,135,2.0,8.0,94,0.00,,,0.00,meteohub,2013-02-27 13:40:00,
2013-02-27 08:46:00,43.3,41.7,29.77,SW,225,2.0,7.0,94,0.00,,,0.00,meteohub,2013-02-27 13:46:00,
2013-02-27 08:52:00,43.9,42.3,29.77,NW,315,4.0,4.0,94,0.00,,,0.00,meteohub,2013-02-27 13:52:00,
2013-02-27 08:58:00,44.4,42.3,29.77,West,270,4.0,4.0,92,0.00,,,0.00,meteohub,2013-02-27 13:58:00,
2013-02-27 09:04:00,45.0,42.4,29.78,South,180,4.0,8.0,91,0.00,,,0.00,meteohub,2013-02-27 14:04:00,
2013-02-27 09:10:00,45.3,42.6,29.78,SW,225,4.0,8.0,90,0.00,,,0.00,meteohub,2013-02-27 14:10:00,
2013-02-27 09:16:00,45.5,42.4,29.78,SW,225,4.0,7.0,89,0.00,,,0.00,meteohub,2013-02-27 14:16:00,
2013-02-27 09:22:00,46.4,43.3,29.78,SW,225,2.0,7.0,89,0.00,,,0.00,meteohub,2013-02-27 14:22:00,
2013-02-27 09:27:00,46.8,42.4,29.77,South,180,2.0,7.0,85,0.00,,,0.00,meteohub,2013-02-27 14:27:00,
2013-02-27 09:32:00,47.3,43.0,29.77,SW,225,5.0,5.0,85,0.00,,,0.00,meteohub,2013-02-27 14:32:00,
2013-02-27 09:37:00,47.8,43.2,29.77,South,180,4.0,8.0,84,0.00,,,0.00,meteohub,2013-02-27 14:37:00,
2013-02-27 09:42:00,48.2,43.3,29.76,North,0,4.0,8.0,83,0.00,,,0.00,meteohub,2013-02-27 14:42:00,
2013-02-27 09:47:00,48.6,43.0,29.76,SW,225,3.0,9.0,81,0.01,,,0.01,meteohub,2013-02-27 14:47:00,
2013-02-27 09:52:00,48.9,42.6,29.76,NW,315,2.0,9.0,79,0.01,,,0.01,meteohub,2013-02-27 14:52:00,
2013-02-27 09:57:00,49.6,43.3,29.76,NW,315,2.0,9.0,79,0.01,,,0.01,meteohub,2013-02-27 14:57:00,
2013-02-27 10:02:00,50.4,43.2,29.76,South,180,4.0,8.0,76,0.01,,,0.01,meteohub,2013-02-27 15:02:00,
2013-02-27 10:07:00,50.7,41.4,29.76,South,180,4.0,8.0,70,0.01,,,0.01,meteohub,2013-02-27 15:07:00,
2013-02-27 10:12:00,50.9,41.5,29.76,SW,225,6.0,7.0,70,0.01,,,0.01,meteohub,2013-02-27 15:12:00,
2013-02-27 10:17:00,51.3,41.0,29.76,South,180,3.0,11.0,68,0.01,,,0.01,meteohub,2013-02-27 15:17:00,
2013-02-27 10:22:00,51.8,41.2,29.76,North,0,5.0,11.0,67,0.01,,,0.01,meteohub,2013-02-27 15:22:00,
2013-02-27 10:27:00,52.5,41.2,29.76,NE,45,6.0,11.0,65,0.01,,,0.01,meteohub,2013-02-27 15:27:00,
2013-02-27 10:32:00,52.7,39.6,29.76,NE,45,2.0,10.0,61,0.01,,,0.01,meteohub,2013-02-27 15:32:00,
2013-02-27 10:37:00,53.1,39.9,29.77,North,0,7.0,10.0,61,0.01,,,0.01,meteohub,2013-02-27 15:37:00,
2013-02-27 10:42:00,53.6,39.2,29.76,SW,225,8.0,11.0,58,0.01,,,0.01,meteohub,2013-02-27 15:42:00,
2013-02-27 10:47:00,54.1,40.6,29.76,East,90,5.0,11.0,60,0.00,,,0.01,meteohub,2013-02-27 15:47:00,
2013-02-27 10:53:00,54.1,38.3,29.76,NE,45,8.0,9.0,55,0.00,,,0.01,meteohub,2013-02-27 15:53:00,
2013-02-27 10:59:00,54.3,37.9,29.77,NW,315,4.0,12.0,54,0.00,,,0.01,meteohub,2013-02-27 15:59:00,
2013-02-27 11:05:00,54.7,37.4,29.77,NW,315,12.0,12.0,52,0.00,,,0.01,meteohub,2013-02-27 16:05:00,
2013-02-27 11:11:00,54.7,37.4,29.77,West,270,5.0,12.0,52,0.00,,,0.01,meteohub,2013-02-27 16:11:00,
2013-02-27 11:17:00,55.0,37.2,29.77,NW,315,5.0,12.0,51,0.00,,,0.01,meteohub,2013-02-27 16:17:00,
2013-02-27 11:23:00,55.4,37.6,29.77,West,270,3.0,12.0,51,0.00,,,0.01,meteohub,2013-02-27 16:23:00,
2013-02-27 11:30:00,55.8,37.4,29.77,SW,225,5.0,11.0,50,0.00,,,0.01,meteohub,2013-02-27 16:30:00,
2013-02-27 11:36:00,56.3,37.9,29.77,North,0,4.0,14.0,50,0.00,,,0.01,meteohub,2013-02-27 16:36:00,
2013-02-27 11:42:00,56.8,36.3,29.77,South,180,7.0,14.0,46,0.00,,,0.01,meteohub,2013-02-27 16:42:00,
2013-02-27 11:47:00,57.0,36.5,29.77,NW,315,5.0,14.0,46,0.00,,,0.01,meteohub,2013-02-27 16:47:00,
2013-02-27 11:52:00,57.6,37.4,29.76,NE,45,4.0,8.0,47,0.00,,,0.01,meteohub,2013-02-27 16:52:00,
2013-02-27 11:57:00,57.9,36.1,29.76,East,90,4.0,8.0,44,0.00,,,0.01,meteohub,2013-02-27 16:57:00,
2013-02-27 12:02:00,58.1,36.3,29.75,SW,225,3.0,8.0,44,0.00,,,0.01,meteohub,2013-02-27 17:02:00,
2013-02-27 12:07:00,57.6,34.0,29.75,West,270,10.0,10.0,41,0.00,,,0.01,meteohub,2013-02-27 17:07:00,
2013-02-27 12:12:00,57.6,35.8,29.75,SE,135,4.0,11.0,44,0.00,,,0.01,meteohub,2013-02-27 17:12:00,
2013-02-27 12:17:00,57.6,35.2,29.75,South,180,5.0,11.0,43,0.00,,,0.01,meteohub,2013-02-27 17:17:00,
2013-02-27 12:22:00,57.9,36.1,29.75,SW,225,5.0,11.0,44,0.00,,,0.01,meteohub,2013-02-27 17:22:00,
2013-02-27 12:27:00,57.7,33.6,29.75,South,180,5.0,8.0,40,0.00,,,0.01,meteohub,2013-02-27 17:27:00,
2013-02-27 12:32:00,57.7,34.2,29.75,South,180,5.0,8.0,41,0.00,,,0.01,meteohub,2013-02-27 17:32:00,
2013-02-27 12:37:00,58.1,34.5,29.74,North,0,4.0,8.0,41,0.00,,,0.01,meteohub,2013-02-27 17:37:00,
2013-02-27 12:42:00,58.6,35.1,29.75,West,270,4.0,10.0,41,0.00,,,0.01,meteohub,2013-02-27 17:42:00,
2013-02-27 12:47:00,58.6,33.8,29.75,NW,315,9.0,10.0,39,0.00,,,0.01,meteohub,2013-02-27 17:47:00,
2013-02-27 12:52:00,58.8,34.0,29.75,NE,45,4.0,10.0,39,0.00,,,0.01,meteohub,2013-02-27 17:52:00,
2013-02-27 12:57:00,59.2,33.6,29.74,West,270,9.0,10.0,38,0.00,,,0.01,meteohub,2013-02-27 17:57:00,
2013-02-27 13:02:00,59.4,33.1,29.73,WSW,248,8.0,10.0,37,0.00,,,0.01,meteohub,2013-02-27 18:02:00,
2013-02-27 13:07:00,59.5,33.3,29.73,West,270,4.0,9.0,37,0.00,,,0.01,meteohub,2013-02-27 18:07:00,
2013-02-27 13:12:00,59.9,32.9,29.73,South,180,4.0,9.0,36,0.00,,,0.01,meteohub,2013-02-27 18:12:00,
2013-02-27 13:17:00,59.7,32.0,29.72,South,180,2.0,11.0,35,0.00,,,0.01,meteohub,2013-02-27 18:17:00,
2013-02-27 13:22:00,59.7,32.7,29.73,NE,45,4.0,11.0,36,0.00,,,0.01,meteohub,2013-02-27 18:22:00,
2013-02-27 13:27:00,59.5,31.1,29.72,WNW,293,4.0,12.0,34,0.00,,,0.01,meteohub,2013-02-27 18:27:00,
2013-02-27 13:32:00,59.7,32.0,29.72,NW,315,5.0,12.0,35,0.00,,,0.01,meteohub,2013-02-27 18:32:00,
2013-02-27 13:37:00,59.5,31.1,29.72,SW,225,4.0,9.0,34,0.00,,,0.01,meteohub,2013-02-27 18:37:00,
2013-02-27 13:42:00,59.9,32.9,29.72,South,180,3.0,8.0,36,0.00,,,0.01,meteohub,2013-02-27 18:42:00,
2013-02-27 13:47:00,59.5,32.5,29.72,SE,135,4.0,8.0,36,0.00,,,0.01,meteohub,2013-02-27 18:47:00,
2013-02-27 13:52:00,59.5,31.8,29.72,NW,315,3.0,8.0,35,0.00,,,0.01,meteohub,2013-02-27 18:52:00,
2013-02-27 13:57:00,60.1,33.1,29.72,NW,315,4.0,8.0,36,0.00,,,0.01,meteohub,2013-02-27 18:57:00,
2013-02-27 14:02:00,60.1,33.8,29.72,South,180,3.0,11.0,37,0.00,,,0.01,meteohub,2013-02-27 19:02:00,
2013-02-27 14:07:00,60.4,32.0,29.72,NW,315,4.0,11.0,34,0.00,,,0.01,meteohub,2013-02-27 19:07:00,
2013-02-27 14:12:00,60.3,31.8,29.72,South,180,4.0,11.0,34,0.00,,,0.01,meteohub,2013-02-27 19:12:00,
2013-02-27 14:17:00,60.4,32.0,29.72,South,180,8.0,11.0,34,0.00,,,0.01,meteohub,2013-02-27 19:17:00,
2013-02-27 14:22:00,60.4,32.7,29.72,South,180,3.0,11.0,35,0.00,,,0.01,meteohub,2013-02-27 19:22:00,
2013-02-27 14:27:00,60.6,31.3,29.72,SW,225,4.0,8.0,33,0.00,,,0.01,meteohub,2013-02-27 19:27:00,
2013-02-27 14:32:00,60.4,31.3,29.72,South,180,4.0,8.0,33,0.00,,,0.01,meteohub,2013-02-27 19:32:00,
2013-02-27 14:37:00,61.0,30.9,29.71,SE,135,8.0,8.0,32,0.00,,,0.01,meteohub,2013-02-27 19:37:00,
2013-02-27 14:42:00,61.2,30.2,29.71,West,270,7.0,8.0,31,0.00,,,0.01,meteohub,2013-02-27 19:42:00,
2013-02-27 14:47:00,60.6,32.2,29.71,South,180,3.0,8.0,34,0.00,,,0.01,meteohub,2013-02-27 19:47:00,
2013-02-27 14:52:00,61.0,30.9,29.71,East,90,4.0,8.0,32,0.00,,,0.01,meteohub,2013-02-27 19:52:00,
2013-02-27 14:57:00,60.8,32.2,29.71,West,270,3.0,8.0,34,0.00,,,0.01,meteohub,2013-02-27 19:57:00,
2013-02-27 15:02:00,61.0,31.6,29.70,SE,135,3.0,8.0,33,0.00,,,0.01,meteohub,2013-02-27 20:02:00,
2013-02-27 15:07:00,61.0,33.8,29.71,West,270,2.0,7.0,36,0.00,,,0.01,meteohub,2013-02-27 20:07:00,
2013-02-27 15:12:00,61.0,34.5,29.71,South,180,4.0,7.0,37,0.00,,,0.01,meteohub,2013-02-27 20:12:00,
2013-02-27 15:17:00,60.6,33.4,29.70,South,180,4.0,9.0,36,0.00,,,0.01,meteohub,2013-02-27 20:17:00,
2013-02-27 15:22:00,60.6,32.2,29.71,SE,135,6.0,9.0,34,0.00,,,0.01,meteohub,2013-02-27 20:22:00,
2013-02-27 15:27:00,60.4,34.7,29.71,West,270,3.0,9.0,38,0.00,,,0.01,meteohub,2013-02-27 20:27:00,
2013-02-27 15:32:00,60.8,33.6,29.71,South,180,3.0,6.0,36,0.00,,,0.01,meteohub,2013-02-27 20:32:00,
2013-02-27 15:37:00,61.0,33.8,29.70,WSW,248,3.0,6.0,36,0.00,,,0.01,meteohub,2013-02-27 20:37:00,
2013-02-27 15:43:00,61.0,33.8,29.70,NW,315,4.0,6.0,36,0.00,,,0.01,meteohub,2013-02-27 20:43:00,
2013-02-27 15:49:00,60.6,33.4,29.70,East,90,4.0,6.0,36,0.00,,,0.01,meteohub,2013-02-27 20:49:00,
2013-02-27 15:55:00,60.8,35.1,29.70,South,180,2.0,9.0,38,0.00,,,0.01,meteohub,2013-02-27 20:55:00,
2013-02-27 16:01:00,61.0,34.5,29.70,South,180,3.0,9.0,37,0.00,,,0.01,meteohub,2013-02-27 21:01:00,
2013-02-27 16:07:00,60.8,33.6,29.70,East,90,3.0,4.0,36,0.00,,,0.01,meteohub,2013-02-27 21:07:00,
2013-02-27 16:12:00,60.8,34.3,29.70,SW,225,4.0,4.0,37,0.00,,,0.01,meteohub,2013-02-27 21:12:00,
2013-02-27 16:17:00,60.4,34.0,29.70,South,180,3.0,4.0,37,0.00,,,0.01,meteohub,2013-02-27 21:17:00,
2013-02-27 16:22:00,59.7,33.4,29.70,WSW,248,3.0,4.0,37,0.00,,,0.01,meteohub,2013-02-27 21:22:00,
2013-02-27 16:27:00,59.2,34.2,29.70,South,180,2.0,4.0,39,0.00,,,0.01,meteohub,2013-02-27 21:27:00,
2013-02-27 16:32:00,58.5,34.9,29.70,South,180,2.0,8.0,41,0.00,,,0.01,meteohub,2013-02-27 21:32:00,
2013-02-27 16:37:00,58.1,35.8,29.70,South,180,2.0,8.0,43,0.00,,,0.01,meteohub,2013-02-27 21:37:00,
2013-02-27 16:42:00,58.1,35.1,29.70,East,90,2.0,8.0,42,0.00,,,0.01,meteohub,2013-02-27 21:42:00,
2013-02-27 16:47:00,57.7,35.4,29.70,South,180,2.0,7.0,43,0.00,,,0.01,meteohub,2013-02-27 21:47:00,
2013-02-27 16:52:00,57.4,35.6,29.70,South,180,4.0,7.0,44,0.00,,,0.01,meteohub,2013-02-27 21:52:00,
2013-02-27 16:57:00,56.8,35.2,29.70,NW,315,4.0,7.0,44,0.00,,,0.01,meteohub,2013-02-27 21:57:00,
2013-02-27 17:02:00,56.7,36.7,29.70,South,180,2.0,6.0,47,0.00,,,0.01,meteohub,2013-02-27 22:02:00,
2013-02-27 17:07:00,56.3,36.3,29.70,SE,135,2.0,6.0,47,0.00,,,0.01,meteohub,2013-02-27 22:07:00,
2013-02-27 17:12:00,55.9,37.0,29.71,South,180,2.0,4.0,49,0.00,,,0.01,meteohub,2013-02-27 22:12:00,
2013-02-27 17:17:00,55.6,36.7,29.70,South,180,2.0,4.0,49,0.00,,,0.01,meteohub,2013-02-27 22:17:00,
2013-02-27 17:22:00,55.4,36.5,29.71,SW,225,2.0,4.0,49,0.00,,,0.01,meteohub,2013-02-27 22:22:00,
2013-02-27 17:27:00,55.2,36.9,29.71,South,180,2.0,4.0,50,0.00,,,0.01,meteohub,2013-02-27 22:27:00,
2013-02-27 17:32:00,54.9,37.0,29.71,NE,45,2.0,4.0,51,0.00,,,0.01,meteohub,2013-02-27 22:32:00,
2013-02-27 17:37:00,54.7,36.9,29.71,West,270,2.0,4.0,51,0.00,,,0.01,meteohub,2013-02-27 22:37:00,
2013-02-27 17:42:00,54.3,37.0,29.71,SE,135,1.0,2.0,52,0.00,,,0.01,meteohub,2013-02-27 22:42:00,
2013-02-27 17:47:00,54.0,37.2,29.71,SE,135,2.0,2.0,53,0.00,,,0.01,meteohub,2013-02-27 22:47:00,
2013-02-27 17:53:00,53.2,37.0,29.71,East,90,1.0,2.0,54,0.00,,,0.01,meteohub,2013-02-27 22:53:00,
2013-02-27 17:59:00,52.5,37.2,29.72,West,270,1.0,2.0,56,0.00,,,0.01,meteohub,2013-02-27 22:59:00,
2013-02-27 18:05:00,52.0,36.9,29.72,SE,135,1.0,2.0,56,0.00,,,0.01,meteohub,2013-02-27 23:05:00,
2013-02-27 18:11:00,51.4,36.7,29.73,SE,135,1.0,2.0,57,0.00,,,0.01,meteohub,2013-02-27 23:11:00,
2013-02-27 18:17:00,51.1,36.9,29.73,South,180,1.0,2.0,58,0.00,,,0.01,meteohub,2013-02-27 23:17:00,
2013-02-27 18:22:00,50.5,36.7,29.72,South,180,1.0,2.0,59,0.00,,,0.01,meteohub,2013-02-27 23:22:00,
2013-02-27 18:27:00,50.4,36.5,29.73,South,180,1.0,2.0,59,0.00,,,0.01,meteohub,2013-02-27 23:27:00,
2013-02-27 18:32:00,50.2,36.9,29.72,South,180,2.0,2.0,60,0.00,,,0.01,meteohub,2013-02-27 23:32:00,
2013-02-27 18:37:00,50.0,37.0,29.73,South,180,1.0,2.0,61,0.00,,,0.01,meteohub,2013-02-27 23:37:00,
2013-02-27 18:42:00,49.6,37.6,29.73,South,180,2.0,2.0,63,0.00,,,0.01,meteohub,2013-02-27 23:42:00,
2013-02-27 18:47:00,48.7,37.0,29.73,South,180,2.0,2.0,64,0.00,,,0.01,meteohub,2013-02-27 23:47:00,
2013-02-27 18:52:00,47.8,37.0,29.73,South,180,2.0,2.0,66,0.00,,,0.01,meteohub,2013-02-27 23:52:00,
2013-02-27 18:57:00,47.3,36.9,29.73,South,180,1.0,2.0,67,0.00,,,0.01,meteohub,2013-02-27 23:57:00,
2013-02-27 19:02:00,46.6,37.0,29.73,South,180,2.0,2.0,69,0.00,,,0.01,meteohub,2013-02-28 00:02:00,
2013-02-27 19:07:00,45.9,36.7,29.73,South,180,2.0,2.0,70,0.00,,,0.00,meteohub,2013-02-28 00:07:00,
2013-02-27 19:12:00,45.3,36.5,29.73,South,180,1.0,2.0,71,0.00,,,0.00,meteohub,2013-02-28 00:12:00,
2013-02-27 19:18:00,44.6,36.5,29.73,South,180,2.0,2.0,73,0.00,,,0.00,meteohub,2013-02-28 00:18:00,
2013-02-27 19:24:00,44.4,36.3,29.73,South,180,1.0,2.0,73,0.00,,,0.00,meteohub,2013-02-28 00:24:00,
2013-02-27 19:30:00,44.4,36.3,29.73,South,180,1.0,2.0,73,0.00,,,0.00,meteohub,2013-02-28 00:30:00,
2013-02-27 19:36:00,44.6,36.9,29.73,South,180,2.0,2.0,74,0.00,,,0.00,meteohub,2013-02-28 00:36:00,
2013-02-27 19:42:00,44.6,36.9,29.73,South,180,1.0,2.0,74,0.00,,,0.00,meteohub,2013-02-28 00:42:00,
2013-02-27 19:47:00,44.6,36.9,29.73,South,180,1.0,2.0,74,0.00,,,0.00,meteohub,2013-02-28 00:47:00,
2013-02-27 19:52:00,44.2,36.9,29.73,South,180,1.0,2.0,75,0.00,,,0.00,meteohub,2013-02-28 00:52:00,
2013-02-27 19:57:00,43.7,36.7,29.73,South,180,2.0,2.0,76,0.00,,,0.00,meteohub,2013-02-28 00:57:00,
2013-02-27 20:02:00,43.5,36.5,29.73,South,180,1.0,2.0,76,0.00,,,0.00,meteohub,2013-02-28 01:02:00,
2013-02-27 20:07:00,43.5,36.5,29.73,South,180,1.0,2.0,76,0.00,,,0.00,meteohub,2013-02-28 01:07:00,
2013-02-27 20:12:00,42.1,36.0,29.73,South,180,2.0,2.0,79,0.00,,,0.00,meteohub,2013-02-28 01:12:00,
2013-02-27 20:19:00,41.7,36.0,29.74,South,180,2.0,2.0,80,0.00,,,0.00,meteohub,2013-02-28 01:19:00,
2013-02-27 20:25:00,41.2,35.4,29.73,South,180,1.0,2.0,80,0.00,,,0.00,meteohub,2013-02-28 01:25:00,
2013-02-27 20:31:00,41.0,36.0,29.73,South,180,2.0,2.0,82,0.00,,,0.00,meteohub,2013-02-28 01:31:00,
2013-02-27 20:37:00,41.2,36.1,29.73,South,180,2.0,2.0,82,0.00,,,0.00,meteohub,2013-02-28 01:37:00,
2013-02-27 20:42:00,41.2,36.5,29.73,South,180,1.0,2.0,83,0.00,,,0.00,meteohub,2013-02-28 01:42:00,
2013-02-27 20:47:00,41.4,36.5,29.74,South,180,1.0,2.0,83,0.00,,,0.00,meteohub,2013-02-28 01:47:00,
2013-02-27 20:52:00,41.2,36.5,29.73,South,180,2.0,2.0,83,0.00,,,0.00,meteohub,2013-02-28 01:52:00,
2013-02-27 20:57:00,41.2,36.5,29.73,South,180,1.0,2.0,83,0.00,,,0.00,meteohub,2013-02-28 01:57:00,
2013-02-27 21:02:00,41.0,36.3,29.73,South,180,1.0,2.0,83,0.00,,,0.00,meteohub,2013-02-28 02:02:00,
2013-02-27 21:07:00,41.0,36.3,29.73,South,180,1.0,2.0,83,0.00,,,0.00,meteohub,2013-02-28 02:07:00,
2013-02-27 21:12:00,40.5,36.0,29.74,South,180,2.0,2.0,84,0.00,,,0.00,meteohub,2013-02-28 02:12:00,
2013-02-27 21:17:00,40.1,36.0,29.74,South,180,2.0,2.0,85,0.00,,,0.00,meteohub,2013-02-28 02:17:00,
2013-02-27 21:22:00,39.9,35.8,29.73,South,180,1.0,2.0,85,0.00,,,0.00,meteohub,2013-02-28 02:22:00,
2013-02-27 21:27:00,39.7,35.6,29.74,South,180,2.0,2.0,85,0.00,,,0.00,meteohub,2013-02-28 02:27:00,
2013-02-27 21:32:00,39.4,35.6,29.74,South,180,1.0,2.0,86,0.00,,,0.00,meteohub,2013-02-28 02:32:00,
2013-02-27 21:37:00,39.2,35.4,29.74,South,180,1.0,2.0,86,0.00,,,0.00,meteohub,2013-02-28 02:37:00,
2013-02-27 21:43:00,39.0,35.2,29.74,South,180,2.0,2.0,86,0.00,,,0.00,meteohub,2013-02-28 02:43:00,
2013-02-27 21:49:00,39.0,35.4,29.73,South,180,2.0,2.0,87,0.00,,,0.00,meteohub,2013-02-28 02:49:00,
2013-02-27 21:55:00,39.0,35.4,29.74,South,180,2.0,2.0,87,0.00,,,0.00,meteohub,2013-02-28 02:55:00,
2013-02-27 22:01:00,38.8,35.2,29.73,South,180,2.0,2.0,87,0.00,,,0.00,meteohub,2013-02-28 03:01:00,
2013-02-27 22:07:00,38.8,35.2,29.74,South,180,2.0,2.0,87,0.00,,,0.00,meteohub,2013-02-28 03:07:00,
2013-02-27 22:12:00,39.0,35.8,29.73,South,180,2.0,2.0,88,0.00,,,0.00,meteohub,2013-02-28 03:12:00,
2013-02-27 22:17:00,38.8,35.6,29.73,South,180,2.0,2.0,88,0.00,,,0.00,meteohub,2013-02-28 03:17:00,
2013-02-27 22:22:00,38.8,36.0,29.73,South,180,1.0,2.0,89,0.00,,,0.00,meteohub,2013-02-28 03:22:00,
2013-02-27 22:27:00,38.8,36.0,29.73,South,180,2.0,2.0,89,0.00,,,0.00,meteohub,2013-02-28 03:27:00,
2013-02-27 22:32:00,38.7,35.8,29.73,South,180,2.0,2.0,89,0.00,,,0.00,meteohub,2013-02-28 03:32:00,
2013-02-27 22:37:00,38.5,35.6,29.73,South,180,2.0,2.0,89,0.00,,,0.00,meteohub,2013-02-28 03:37:00,
2013-02-27 22:42:00,38.7,35.8,29.73,South,180,2.0,2.0,89,0.00,,,0.00,meteohub,2013-02-28 03:42:00,
2013-02-27 22:47:00,38.5,35.6,29.73,South,180,2.0,2.0,89,0.00,,,0.00,meteohub,2013-02-28 03:47:00,
2013-02-27 22:52:00,38.3,35.6,29.73,South,180,2.0,2.0,90,0.00,,,0.00,meteohub,2013-02-28 03:52:00,
2013-02-27 22:57:00,38.3,35.6,29.73,South,180,2.0,2.0,90,0.00,,,0.00,meteohub,2013-02-28 03:57:00,
2013-02-27 23:02:00,38.3,35.6,29.72,South,180,2.0,2.0,90,0.00,,,0.00,meteohub,2013-02-28 04:02:00,
2013-02-27 23:07:00,38.3,35.6,29.72,South,180,2.0,2.0,90,0.00,,,0.00,meteohub,2013-02-28 04:07:00,
2013-02-27 23:12:00,38.7,36.0,29.71,South,180,2.0,2.0,90,0.00,,,0.00,meteohub,2013-02-28 04:12:00,
2013-02-27 23:17:00,38.7,36.0,29.71,South,180,1.0,2.0,90,0.00,,,0.00,meteohub,2013-02-28 04:17:00,
2013-02-27 23:22:00,38.8,36.5,29.71,South,180,2.0,2.0,91,0.00,,,0.00,meteohub,2013-02-28 04:22:00,
2013-02-27 23:27:00,39.0,36.7,29.72,South,180,1.0,2.0,91,0.00,,,0.00,meteohub,2013-02-28 04:27:00,
2013-02-27 23:32:00,39.4,37.0,29.71,South,180,1.0,2.0,91,0.00,,,0.00,meteohub,2013-02-28 04:32:00,
2013-02-27 23:38:00,39.9,37.6,29.72,NE,45,3.0,3.0,91,0.00,,,0.00,meteohub,2013-02-28 04:38:00,
2013-02-27 23:44:00,40.5,38.3,29.72,West,270,4.0,4.0,92,0.00,,,0.00,meteohub,2013-02-28 04:44:00,
2013-02-27 23:50:00,41.7,39.6,29.73,NNE,23,2.0,4.0,92,0.00,,,0.00,meteohub,2013-02-28 04:50:00,
2013-02-27 23:56:00,42.8,40.1,29.72,East,90,2.0,4.0,90,0.00,,,0.00,meteohub,2013-02-28 04:56:00,